Time;durP1;ratioP1;P1;durP2;ratioP2;P2;SDS_P1;SDS_P2;PMS_P1;PMS_P2;Temp;Humidity;BMP_temperature;BMP_pressure;BME280_temperature;BME280_humidity;BME280_pressure;Samples;Min_cycle;Max_cycle;Signal;HPM_P1;HPM_P2
2023/02/26 00:02:18;;;;;;;6.28;1.80;;;10.00;86.10;;;;;;4896382;29;20441;-77
2023/02/26 00:04:44;;;;;;;6.30;1.55;;;10.00;86.70;;;;;;4897907;29;20063;-77
2023/02/26 00:07:09;;;;;;;7.47;2.28;;;9.90;86.40;;;;;;4901726;29;20129;-77
2023/02/26 00:09:35;;;;;;;3.70;1.60;;;9.90;87.50;;;;;;4895228;29;20029;-77
2023/02/26 00:12:01;;;;;;;4.75;1.60;;;9.90;88.30;;;;;;4902743;29;20451;-77
2023/02/26 00:14:27;;;;;;;3.40;2.13;;;9.80;84.30;;;;;;4905737;29;20039;-77
2023/02/26 00:17:16;;;;;;;3.90;1.00;;;9.70;87.30;;;;;;4901447;29;20555;-77
2023/02/26 00:19:42;;;;;;;2.03;0.70;;;9.70;84.30;;;;;;4900166;29;20389;-77
2023/02/26 00:22:08;;;;;;;2.83;0.80;;;9.70;83.70;;;;;;4908249;29;20036;-76
2023/02/26 00:24:34;;;;;;;3.15;0.90;;;9.70;83.40;;;;;;4898744;29;20027;-76
2023/02/26 00:26:59;;;;;;;0.95;0.35;;;9.60;81.90;;;;;;4899030;29;20033;-77
2023/02/26 00:29:26;;;;;;;1.45;0.57;;;9.60;80.10;;;;;;4896881;29;20047;-77
2023/02/26 00:31:51;;;;;;;4.72;0.50;;;9.60;80.40;;;;;;4902245;29;20495;-77
2023/02/26 00:34:17;;;;;;;0.98;0.30;;;9.60;80.40;;;;;;4907654;29;20036;-77
2023/02/26 00:37:11;;;;;;;0.73;0.38;;;9.60;80.30;;;;;;4898091;29;20059;-77
2023/02/26 00:40:06;;;;;;;0.88;0.30;;;9.50;78.40;;;;;;4899147;29;20039;-77
2023/02/26 00:42:32;;;;;;;5.88;0.40;;;9.50;78.40;;;;;;4892524;29;20259;-77
2023/02/26 00:44:58;;;;;;;1.30;0.50;;;9.50;80.80;;;;;;4900324;29;20032;-77
2023/02/26 00:47:50;;;;;;;0.50;0.20;;;9.40;81.00;;;;;;4903581;29;20604;-77
2023/02/26 00:50:22;;;;;;;3.65;0.60;;;9.40;77.90;;;;;;4894384;29;20414;-77
2023/02/26 00:53:02;;;;;;;1.85;0.32;;;9.50;78.40;;;;;;4898908;29;20561;-77
2023/02/26 00:55:28;;;;;;;1.30;0.57;;;9.40;77.00;;;;;;4906945;29;20509;-77
2023/02/26 00:57:54;;;;;;;1.52;0.57;;;9.40;78.00;;;;;;4894562;29;20037;-77
2023/02/26 01:00:20;;;;;;;0.88;0.52;;;9.40;77.60;;;;;;4898867;29;20099;-77
2023/02/26 01:02:46;;;;;;;0.52;0.35;;;9.30;76.80;;;;;;4898074;29;20158;-77
2023/02/26 01:05:13;;;;;;;0.60;0.45;;;9.30;77.10;;;;;;4908019;29;20031;-76
2023/02/26 01:07:41;;;;;;;0.90;0.47;;;9.30;77.20;;;;;;4907950;29;20083;-76
2023/02/26 01:10:08;;;;;;;2.63;0.60;;;9.20;75.50;;;;;;4906650;29;20025;-77
2023/02/26 01:12:34;;;;;;;2.67;0.30;;;9.20;75.60;;;;;;4900742;29;20031;-76
2023/02/26 01:15:00;;;;;;;0.82;0.25;;;9.20;76.60;;;;;;4898433;29;20028;-76
2023/02/26 01:17:38;;;;;;;1.02;0.28;;;9.10;75.30;;;;;;4898250;29;20398;-77
2023/02/26 01:20:13;;;;;;;1.75;0.47;;;9.20;74.70;;;;;;4903702;29;20518;-77
2023/02/26 01:22:43;;;;;;;;;;;9.10;75.70;;;;;;4898998;29;20056;-77
2023/02/26 01:25:15;;;;;;;0.43;0.28;;;9.10;75.10;;;;;;4900355;29;20426;-77
2023/02/26 01:27:41;;;;;;;0.73;0.30;;;9.10;74.60;;;;;;4896254;29;20075;-77
2023/02/26 01:30:07;;;;;;;4.03;0.43;;;9.10;74.20;;;;;;4893685;29;20056;-77
2023/02/26 01:32:53;;;;;;;0.88;0.30;;;9.10;74.60;;;;;;4902913;29;20028;-77
2023/02/26 01:35:30;;;;;;;0.47;0.30;;;9.10;75.50;;;;;;4900516;29;20043;-77
2023/02/26 01:37:55;;;;;;;0.70;0.20;;;9.00;76.00;;;;;;4894411;29;20029;-77
2023/02/26 01:40:27;;;;;;;2.15;0.43;;;9.10;75.00;;;;;;4895410;29;20103;-77
2023/02/26 01:42:58;;;;;;;0.47;0.17;;;9.00;73.90;;;;;;4895914;29;20037;-77
2023/02/26 01:45:33;;;;;;;0.30;0.10;;;9.00;74.50;;;;;;4895535;29;20036;-76
2023/02/26 01:48:26;;;;;;;0.80;0.30;;;9.00;73.50;;;;;;4905971;29;20032;-77
2023/02/26 01:50:51;;;;;;;2.80;0.38;;;9.00;75.00;;;;;;4900603;29;20044;-77
2023/02/26 01:53:19;;;;;;;2.50;0.30;;;8.90;75.40;;;;;;4904228;29;20028;-78
2023/02/26 01:56:08;;;;;;;1.05;0.40;;;8.90;75.20;;;;;;4907753;29;20046;-76
2023/02/26 01:58:35;;;;;;;0.20;0.08;;;8.90;75.00;;;;;;4901846;29;20036;-77
2023/02/26 02:01:01;;;;;;;2.30;0.30;;;8.90;74.10;;;;;;4902488;29;20140;-77
2023/02/26 02:03:31;;;;;;;1.05;0.45;;;8.90;71.80;;;;;;4912259;29;20495;-77
2023/02/26 02:06:03;;;;;;;2.17;0.73;;;9.00;71.50;;;;;;4902555;29;20025;-77
2023/02/26 02:08:34;;;;;;;2.28;0.35;;;9.00;72.30;;;;;;4909590;29;20032;-77
2023/02/26 02:11:01;;;;;;;1.50;0.40;;;9.00;70.90;;;;;;4898964;29;20024;-77
2023/02/26 02:13:58;;;;;;;1.05;0.22;;;9.00;72.10;;;;;;4903579;29;20028;-76
2023/02/26 02:16:47;;;;;;;0.98;0.50;;;9.00;72.60;;;;;;4909175;29;20586;-77
2023/02/26 02:19:43;;;;;;;1.42;0.45;;;9.00;72.50;;;;;;4900108;29;20044;-77
2023/02/26 02:22:54;;;;;;;0.63;0.38;;;8.90;70.40;;;;;;4907296;29;20407;-76
2023/02/26 02:25:36;;;;;;;0.47;0.22;;;9.00;70.40;;;;;;4903609;29;20043;-76
2023/02/26 02:28:23;;;;;;;0.38;0.10;;;8.90;71.10;;;;;;4902654;29;20451;-77
2023/02/26 02:31:13;;;;;;;1.20;0.10;;;8.80;71.00;;;;;;4902522;29;20072;-77
2023/02/26 02:33:56;;;;;;;3.30;0.40;;;8.80;71.20;;;;;;4905705;29;20080;-76
2023/02/26 02:36:46;;;;;;;2.22;0.55;;;8.90;70.10;;;;;;4912760;29;20032;-76
2023/02/26 02:39:19;;;;;;;0.43;0.40;;;8.90;69.10;;;;;;4908480;29;20036;-77
2023/02/26 02:41:57;;;;;;;2.17;0.40;;;9.00;68.90;;;;;;4898909;29;20055;-77
2023/02/26 02:44:26;;;;;;;0.60;0.20;;;8.90;70.60;;;;;;4904033;29;20117;-77
2023/02/26 02:46:55;;;;;;;0.32;0.15;;;8.90;70.80;;;;;;4913992;29;20039;-77
2023/02/26 02:49:30;;;;;;;1.45;0.20;;;8.90;69.10;;;;;;4909690;29;20052;-77
2023/02/26 02:52:18;;;;;;;6.18;1.40;;;8.90;68.10;;;;;;4906190;29;20036;-77
2023/02/26 02:54:47;;;;;;;5.28;0.40;;;8.90;68.60;;;;;;4903361;29;20490;-77
2023/02/26 02:57:24;;;;;;;0.82;0.30;;;8.90;68.70;;;;;;4908401;29;20044;-76
2023/02/26 03:00:05;;;;;;;1.27;0.20;;;8.90;68.90;;;;;;4913333;29;20040;-77
2023/02/26 03:02:45;;;;;;;1.92;0.20;;;8.80;68.10;;;;;;4907129;29;20107;-77
2023/02/26 03:05:12;;;;;;;0.70;0.35;;;8.80;67.70;;;;;;4909012;29;20032;-77
2023/02/26 03:07:46;;;;;;;0.75;0.30;;;8.80;67.80;;;;;;4909663;29;20165;-77
2023/02/26 03:10:13;;;;;;;1.58;0.30;;;8.70;67.10;;;;;;4903353;29;20020;-77
2023/02/26 03:12:38;;;;;;;1.20;0.22;;;8.70;67.00;;;;;;4900701;29;20096;-77
2023/02/26 03:15:05;;;;;;;4.90;0.35;;;8.70;67.30;;;;;;4905540;29;20028;-77
2023/02/26 03:17:57;;;;;;;0.20;0.10;;;8.70;68.20;;;;;;4896222;29;20104;-77
2023/02/26 03:20:28;;;;;;;0.45;0.20;;;8.70;66.40;;;;;;4901076;29;20067;-76
2023/02/26 03:23:02;;;;;;;0.60;0.20;;;8.70;66.20;;;;;;4901861;29;20048;-77
2023/02/26 03:25:34;;;;;;;1.05;0.30;;;8.70;67.00;;;;;;4912816;29;20039;-76
2023/02/26 03:28:19;;;;;;;0.70;0.20;;;8.70;66.30;;;;;;4907842;29;20525;-76
2023/02/26 03:30:55;;;;;;;3.47;0.50;;;8.70;65.60;;;;;;4907950;29;20033;-76
2023/02/26 03:33:41;;;;;;;2.55;0.20;;;8.60;66.10;;;;;;4911782;29;20119;-76
2023/02/26 03:36:30;;;;;;;3.22;0.57;;;8.60;67.10;;;;;;4908499;29;20028;-76
2023/02/26 03:39:18;;;;;;;1.27;0.73;;;8.50;66.20;;;;;;4901569;29;20383;-76
2023/02/26 03:41:51;;;;;;;0.30;0.20;;;8.50;66.00;;;;;;4904808;29;20041;-77
2023/02/26 03:44:24;;;;;;;0.90;0.30;;;8.50;65.90;;;;;;4911976;29;20039;-77
2023/02/26 03:46:57;;;;;;;0.65;0.30;;;8.50;65.10;;;;;;4907035;29;20084;-76
2023/02/26 03:49:31;;;;;;;0.40;0.20;;;8.50;66.00;;;;;;4902259;29;20104;-76
2023/02/26 03:51:59;;;;;;;0.67;0.10;;;8.50;65.20;;;;;;4903781;29;20364;-76
2023/02/26 03:55:00;;;;;;;0.45;0.20;;;8.60;65.60;;;;;;4903043;29;20046;-77
2023/02/26 03:57:26;;;;;;;0.93;0.28;;;8.50;65.00;;;;;;4897431;29;20054;-77
2023/02/26 03:59:53;;;;;;;0.70;0.30;;;8.50;64.90;;;;;;4909146;29;20535;-76
2023/02/26 04:02:26;;;;;;;1.77;0.50;;;8.40;65.10;;;;;;4906251;29;20032;-77
2023/02/26 04:04:59;;;;;;;2.58;0.50;;;8.50;63.80;;;;;;4895818;29;20036;-77
2023/02/26 04:07:25;;;;;;;0.30;0.22;;;8.60;63.50;;;;;;4901569;29;20028;-76
2023/02/26 04:09:52;;;;;;;1.60;0.43;;;8.50;63.80;;;;;;4908203;29;20137;-76
2023/02/26 04:12:25;;;;;;;0.75;0.38;;;8.50;64.30;;;;;;4894721;29;20088;-76
2023/02/26 04:14:51;;;;;;;2.00;0.32;;;8.50;63.60;;;;;;4898699;29;20050;-76
2023/02/26 04:17:17;;;;;;;1.25;0.60;;;8.50;64.30;;;;;;4896425;29;20322;-76
2023/02/26 04:19:42;;;;;;;0.77;0.30;;;8.40;64.60;;;;;;4901551;29;20037;-76
2023/02/26 04:22:08;;;;;;;0.98;0.35;;;8.50;65.20;;;;;;4895710;29;20044;-76
2023/02/26 04:24:34;;;;;;;1.02;0.50;;;8.40;65.90;;;;;;4899312;29;20609;-76
2023/02/26 04:27:00;;;;;;;1.55;0.57;;;8.30;63.90;;;;;;4902992;29;20037;-76
2023/02/26 04:29:26;;;;;;;0.55;0.30;;;8.40;62.50;;;;;;4896277;29;20032;-76
2023/02/26 04:31:52;;;;;;;0.73;0.38;;;8.40;62.80;;;;;;4900642;29;20111;-75
2023/02/26 04:34:18;;;;;;;4.75;0.57;;;8.40;63.10;;;;;;4895742;29;20105;-76
2023/02/26 04:36:44;;;;;;;0.40;0.25;;;8.40;62.60;;;;;;4895772;29;20048;-76
2023/02/26 04:39:09;;;;;;;0.88;0.30;;;8.30;62.40;;;;;;4891547;29;20491;-75
2023/02/26 04:41:36;;;;;;;3.88;0.47;;;8.40;63.90;;;;;;4904497;29;20080;-76
2023/02/26 04:44:03;;;;;;;1.65;0.47;;;8.30;61.20;;;;;;4892351;29;20044;-76
2023/02/26 04:46:29;;;;;;;0.98;0.38;;;8.40;61.30;;;;;;4891153;29;20063;-76
2023/02/26 04:48:54;;;;;;;2.45;0.93;;;8.40;61.10;;;;;;4896853;29;20204;-76
2023/02/26 04:51:20;;;;;;;1.05;0.30;;;8.40;60.20;;;;;;4893755;29;20123;-75
2023/02/26 04:53:45;;;;;;;1.40;0.50;;;8.40;60.80;;;;;;4897487;29;20066;-77
2023/02/26 04:56:11;;;;;;;1.52;0.40;;;8.30;60.40;;;;;;4890793;29;20040;-76
2023/02/26 04:58:37;;;;;;;1.60;0.90;;;8.30;59.80;;;;;;4897393;29;20594;-76
2023/02/26 05:01:03;;;;;;;1.92;0.52;;;8.30;60.60;;;;;;4901101;29;20036;-76
2023/02/26 05:03:29;;;;;;;1.63;0.55;;;8.30;60.10;;;;;;4893102;29;20040;-76
2023/02/26 05:05:54;;;;;;;0.73;0.40;;;8.30;60.50;;;;;;4899601;29;20048;-76
2023/02/26 05:08:20;;;;;;;2.00;0.60;;;8.30;60.80;;;;;;4901552;29;20084;-76
2023/02/26 05:10:46;;;;;;;3.55;0.70;;;8.10;59.50;;;;;;4897672;29;20024;-76
2023/02/26 05:13:12;;;;;;;15.43;1.90;;;8.10;59.60;;;;;;4897407;29;20455;-76
2023/02/26 05:15:37;;;;;;;1.30;0.60;;;8.00;59.90;;;;;;4892009;29;20036;-75
2023/02/26 05:18:03;;;;;;;1.23;0.50;;;8.10;59.60;;;;;;4897356;29;20037;-76
2023/02/26 05:20:29;;;;;;;6.43;0.70;;;8.10;59.30;;;;;;4902657;29;20465;-76
2023/02/26 05:22:54;;;;;;;3.10;0.57;;;8.10;58.40;;;;;;4895850;29;20131;-76
2023/02/26 05:25:20;;;;;;;1.70;0.73;;;8.00;58.90;;;;;;4901469;29;20047;-76
2023/02/26 05:27:46;;;;;;;1.67;0.45;;;8.00;58.80;;;;;;4894038;29;20029;-75
2023/02/26 05:30:15;;;;;;;1.48;0.57;;;8.00;58.70;;;;;;4899054;29;20039;-76
2023/02/26 05:32:41;;;;;;;1.80;0.73;;;8.00;58.70;;;;;;4890474;29;20123;-74
2023/02/26 05:35:07;;;;;;;1.38;0.70;;;7.90;58.90;;;;;;4893453;29;20036;-75
2023/02/26 05:37:33;;;;;;;4.53;0.65;;;7.90;58.40;;;;;;4893436;29;20519;-75
2023/02/26 05:39:58;;;;;;;2.20;0.50;;;7.90;58.70;;;;;;4893027;29;20073;-76
2023/02/26 05:42:24;;;;;;;1.08;0.47;;;7.90;58.10;;;;;;4900015;29;20043;-75
2023/02/26 05:44:50;;;;;;;1.17;0.60;;;7.90;58.60;;;;;;4903616;29;20036;-75
2023/02/26 05:47:16;;;;;;;1.75;0.60;;;7.80;58.10;;;;;;4905746;29;20534;-75
2023/02/26 05:49:42;;;;;;;1.95;0.77;;;7.80;58.00;;;;;;4910027;29;20420;-75
2023/02/26 05:52:07;;;;;;;1.77;0.77;;;7.80;58.70;;;;;;4896135;29;20067;-76
2023/02/26 05:54:33;;;;;;;2.35;0.65;;;7.80;57.70;;;;;;4902522;29;20068;-75
2023/02/26 05:56:59;;;;;;;2.10;0.50;;;7.80;58.10;;;;;;4902313;29;20032;-76
2023/02/26 05:59:25;;;;;;;4.15;0.93;;;7.70;57.60;;;;;;4903410;29;20036;-75
2023/02/26 06:01:50;;;;;;;3.13;0.73;;;7.60;59.10;;;;;;4907959;29;20340;-76
2023/02/26 06:04:16;;;;;;;1.05;0.50;;;7.60;58.10;;;;;;4905844;29;20052;-75
2023/02/26 06:06:42;;;;;;;1.75;0.60;;;7.60;57.80;;;;;;4903569;29;20040;-76
2023/02/26 06:09:07;;;;;;;1.20;0.60;;;7.60;58.60;;;;;;4900558;29;20063;-75
2023/02/26 06:11:33;;;;;;;1.67;0.75;;;7.60;58.50;;;;;;4904035;29;20643;-75
2023/02/26 06:13:59;;;;;;;1.65;0.93;;;7.50;58.10;;;;;;4906397;29;20036;-75
2023/02/26 06:16:25;;;;;;;1.88;0.75;;;7.50;58.60;;;;;;4895702;29;20418;-75
2023/02/26 06:18:50;;;;;;;2.78;1.10;;;7.50;58.90;;;;;;4898086;29;20598;-75
2023/02/26 06:21:17;;;;;;;4.47;2.35;;;7.50;59.50;;;;;;4905404;29;20028;-76
2023/02/26 06:23:43;;;;;;;2.22;0.73;;;7.50;60.60;;;;;;4910561;29;20351;-76
2023/02/26 06:26:10;;;;;;;1.92;0.70;;;7.40;59.70;;;;;;4893432;29;20119;-75
2023/02/26 06:28:35;;;;;;;2.35;0.80;;;7.30;59.40;;;;;;4896057;29;20032;-75
2023/02/26 06:31:02;;;;;;;1.67;0.77;;;7.30;59.90;;;;;;4893384;29;20035;-78
2023/02/26 06:33:27;;;;;;;2.95;1.30;;;7.30;60.60;;;;;;4899160;29;20036;-77
2023/02/26 06:35:54;;;;;;;1.85;0.90;;;7.40;60.40;;;;;;4898941;29;20036;-77
2023/02/26 06:38:20;;;;;;;1.90;0.90;;;7.30;60.90;;;;;;4893829;29;20040;-78
2023/02/26 06:40:46;;;;;;;3.85;0.75;;;7.10;60.80;;;;;;4898052;29;20399;-78
2023/02/26 06:43:12;;;;;;;1.33;0.70;;;7.10;60.80;;;;;;4902551;29;20044;-78
2023/02/26 06:45:38;;;;;;;1.17;0.60;;;7.20;61.30;;;;;;4897602;29;20040;-77
2023/02/26 06:48:04;;;;;;;2.10;0.80;;;7.10;61.60;;;;;;4893866;29;20459;-77
2023/02/26 06:50:30;;;;;;;1.65;0.60;;;7.00;60.90;;;;;;4893108;29;20448;-76
2023/02/26 06:52:56;;;;;;;8.48;2.58;;;7.00;61.10;;;;;;4899598;29;20538;-76
2023/02/26 06:55:25;;;;;;;6.22;2.03;;;7.00;61.70;;;;;;4905234;29;20112;-76
2023/02/26 06:57:52;;;;;;;1.80;0.73;;;7.00;61.90;;;;;;4905638;29;20063;-77
2023/02/26 07:00:18;;;;;;;1.73;0.40;;;6.90;60.90;;;;;;4897021;29;20476;-76
2023/02/26 07:02:44;;;;;;;2.25;0.52;;;6.70;60.90;;;;;;4902371;29;20112;-76
2023/02/26 07:05:10;;;;;;;1.67;0.85;;;6.80;61.10;;;;;;4898999;29;20084;-76
2023/02/26 07:07:35;;;;;;;0.45;0.28;;;6.80;61.10;;;;;;4895843;29;20152;-77
2023/02/26 07:10:01;;;;;;;1.95;0.77;;;6.80;61.10;;;;;;4898324;29;20050;-77
2023/02/26 07:12:27;;;;;;;1.50;0.80;;;6.80;61.80;;;;;;4898903;29;20039;-77
2023/02/26 07:14:52;;;;;;;0.70;0.32;;;6.70;61.20;;;;;;4897407;29;20127;-77
2023/02/26 07:17:19;;;;;;;1.08;0.60;;;6.70;61.80;;;;;;4895588;29;20629;-77
2023/02/26 07:19:46;;;;;;;2.42;0.77;;;6.70;61.30;;;;;;4892207;29;20040;-77
2023/02/26 07:22:12;;;;;;;0.43;0.28;;;6.70;61.00;;;;;;4904628;29;20047;-79
2023/02/26 07:24:38;;;;;;;2.95;1.13;;;6.70;61.20;;;;;;4900680;29;20502;-79
2023/02/26 07:27:03;;;;;;;14.63;6.07;;;6.80;61.80;;;;;;4901053;29;20047;-79
2023/02/26 07:29:29;;;;;;;5.28;2.20;;;6.80;61.50;;;;;;4897252;29;20442;-79
2023/02/26 07:31:55;;;;;;;5.50;2.30;;;6.90;62.30;;;;;;4897241;29;20038;-78
2023/02/26 07:34:20;;;;;;;3.58;0.65;;;7.00;61.40;;;;;;4891110;29;20032;-79
2023/02/26 07:36:46;;;;;;;0.93;0.30;;;6.90;60.60;;;;;;4900154;29;20041;-79
2023/02/26 07:39:12;;;;;;;1.65;0.40;;;6.80;60.50;;;;;;4897854;29;20060;-79
2023/02/26 07:41:38;;;;;;;0.88;0.40;;;6.70;60.10;;;;;;4896303;29;21131;-79
2023/02/26 07:44:03;;;;;;;0.95;0.40;;;6.90;60.60;;;;;;4896778;29;20637;-78
2023/02/26 07:46:29;;;;;;;0.73;0.40;;;7.00;60.70;;;;;;4900649;29;20036;-79
2023/02/26 07:48:55;;;;;;;0.93;0.40;;;6.90;61.00;;;;;;4893962;29;20063;-79
2023/02/26 07:51:20;;;;;;;3.88;0.40;;;6.90;60.70;;;;;;4893780;29;20036;-79
2023/02/26 07:53:46;;;;;;;5.78;0.40;;;6.90;60.70;;;;;;4897909;29;20028;-80
2023/02/26 07:56:11;;;;;;;2.78;0.30;;;6.80;60.80;;;;;;4895519;29;20380;-77
2023/02/26 07:58:37;;;;;;;1.85;0.30;;;6.80;60.30;;;;;;4899344;29;20035;-80
2023/02/26 08:01:03;;;;;;;3.33;0.80;;;6.90;60.60;;;;;;4899245;29;20032;-79
2023/02/26 08:03:31;;;;;;;8.07;0.60;;;6.90;61.00;;;;;;4896216;29;20040;-79
2023/02/26 08:05:59;;;;;;;2.17;0.50;;;6.90;61.20;;;;;;4896980;29;20024;-79
2023/02/26 08:08:25;;;;;;;7.32;0.65;;;6.90;60.90;;;;;;4902161;29;20047;-79
2023/02/26 08:10:51;;;;;;;1.10;0.52;;;6.60;59.20;;;;;;4908214;29;20032;-79
2023/02/26 08:13:17;;;;;;;2.30;0.43;;;6.70;60.40;;;;;;4898840;29;20032;-78
2023/02/26 08:15:43;;;;;;;1.38;0.40;;;7.10;66.60;;;;;;4896988;29;20036;-79
2023/02/26 08:18:09;;;;;;;1.35;0.40;;;7.00;61.30;;;;;;4905073;29;20043;-78
2023/02/26 08:20:35;;;;;;;7.43;4.15;;;6.80;59.20;;;;;;4900493;29;20037;-78
2023/02/26 08:23:01;;;;;;;1.20;0.73;;;6.70;60.00;;;;;;4902051;29;20043;-78
2023/02/26 08:25:27;;;;;;;1.70;0.45;;;6.90;60.20;;;;;;4897551;29;21357;-78
2023/02/26 08:27:52;;;;;;;1.02;0.30;;;6.90;60.20;;;;;;4890361;29;20049;-77
2023/02/26 08:30:18;;;;;;;0.50;0.30;;;6.90;60.00;;;;;;4895547;29;20164;-78
2023/02/26 08:32:44;;;;;;;2.85;0.30;;;7.00;59.00;;;;;;4899354;29;20032;-78
2023/02/26 08:35:11;;;;;;;3.03;0.40;;;7.00;58.70;;;;;;4899010;29;20036;-76
2023/02/26 08:37:37;;;;;;;0.55;0.30;;;7.00;58.30;;;;;;4897117;29;20035;-77
2023/02/26 08:40:05;;;;;;;1.17;0.52;;;7.00;58.50;;;;;;4898803;29;20055;-78
2023/02/26 08:42:31;;;;;;;0.95;0.35;;;6.90;58.80;;;;;;4908456;29;20118;-78
2023/02/26 08:44:56;;;;;;;0.88;0.38;;;7.00;58.90;;;;;;4899406;29;20065;-78
2023/02/26 08:47:22;;;;;;;0.30;0.10;;;7.10;58.50;;;;;;4904614;29;20032;-78
2023/02/26 08:49:47;;;;;;;0.45;0.17;;;7.10;58.70;;;;;;4892917;29;20231;-78
2023/02/26 08:52:14;;;;;;;2.05;0.40;;;6.90;57.60;;;;;;4897151;29;20044;-78
2023/02/26 08:54:39;;;;;;;0.65;0.40;;;7.00;57.00;;;;;;4904954;29;20043;-78
2023/02/26 08:57:05;;;;;;;0.32;0.20;;;7.10;57.10;;;;;;4908718;29;20028;-78
2023/02/26 08:59:31;;;;;;;1.83;0.50;;;7.10;58.30;;;;;;4899542;29;20191;-79
2023/02/26 09:01:57;;;;;;;0.73;0.40;;;7.10;57.60;;;;;;4892469;29;20127;-78
2023/02/26 09:04:22;;;;;;;0.68;0.38;;;7.30;57.50;;;;;;4903567;29;20077;-78
2023/02/26 09:06:48;;;;;;;5.72;0.60;;;7.30;57.30;;;;;;4901153;29;20051;-78
2023/02/26 09:09:14;;;;;;;0.93;0.30;;;7.30;57.80;;;;;;4907570;29;20502;-78
2023/02/26 09:11:39;;;;;;;0.98;0.30;;;7.20;56.00;;;;;;4908066;29;20039;-76
2023/02/26 09:14:05;;;;;;;2.92;0.30;;;7.30;56.80;;;;;;4899669;29;20098;-79
2023/02/26 09:16:35;;;;;;;1.48;0.50;;;7.30;56.20;;;;;;4893791;29;20028;-78
2023/02/26 09:19:01;;;;;;;1.02;0.38;;;7.40;56.40;;;;;;4898576;29;20032;-77
2023/02/26 09:21:27;;;;;;;1.13;0.30;;;7.60;56.90;;;;;;4890662;29;20085;-78
2023/02/26 09:23:53;;;;;;;0.60;0.30;;;7.40;56.30;;;;;;4891888;29;20064;-77
2023/02/26 09:26:18;;;;;;;1.50;0.50;;;7.50;57.20;;;;;;4910416;29;20033;-78
2023/02/26 09:28:44;;;;;;;4.22;0.45;;;7.50;55.70;;;;;;4919095;29;20043;-78
2023/02/26 09:31:09;;;;;;;0.90;0.32;;;7.60;56.40;;;;;;4895989;29;20029;-78
2023/02/26 09:33:35;;;;;;;0.65;0.30;;;7.70;56.80;;;;;;4893832;29;20099;-78
2023/02/26 09:36:01;;;;;;;0.95;0.20;;;7.50;54.80;;;;;;4903973;29;20035;-78
2023/02/26 09:38:26;;;;;;;2.25;0.57;;;7.60;56.60;;;;;;4916676;29;20042;-78
2023/02/26 09:41:03;;;;;;;4.65;0.38;;;7.70;57.00;;;;;;4930944;29;20032;-77
2023/02/26 09:43:48;;;;;;;0.80;0.30;;;7.60;55.50;;;;;;4904854;29;20506;-78
2023/02/26 09:46:28;;;;;;;4.25;0.30;;;7.70;56.30;;;;;;4919583;29;20031;-78
2023/02/26 09:49:04;;;;;;;1.35;0.30;;;7.70;55.10;;;;;;4920192;29;20090;-78
2023/02/26 09:51:32;;;;;;;1.02;0.35;;;7.60;55.30;;;;;;4929728;29;20035;-78
2023/02/26 09:54:04;;;;;;;3.40;0.40;;;7.80;56.10;;;;;;4929993;29;20035;-78
2023/02/26 09:56:35;;;;;;;0.60;0.28;;;7.70;55.40;;;;;;4914040;29;20110;-77
2023/02/26 09:59:01;;;;;;;29.30;3.35;;;7.80;55.80;;;;;;4921504;29;20211;-77
2023/02/26 10:01:30;;;;;;;0.45;0.15;;;7.60;55.20;;;;;;4931046;29;20036;-77
2023/02/26 10:03:58;;;;;;;0.70;0.30;;;7.80;56.50;;;;;;4930981;29;20118;-77
2023/02/26 10:06:43;;;;;;;0.95;0.35;;;7.80;56.20;;;;;;4931251;29;20106;-77
2023/02/26 10:09:17;;;;;;;1.13;0.40;;;8.00;56.20;;;;;;4929482;29;20032;-77
2023/02/26 10:11:51;;;;;;;3.10;0.40;;;8.00;56.40;;;;;;4893412;29;20064;-77
2023/02/26 10:14:27;;;;;;;1.15;0.50;;;7.70;55.80;;;;;;4893313;29;20021;-77
2023/02/26 10:16:58;;;;;;;1.42;0.35;;;7.80;56.20;;;;;;4913101;29;20063;-77
2023/02/26 10:19:32;;;;;;;3.03;0.50;;;7.80;55.60;;;;;;4902006;29;20040;-77
2023/02/26 10:22:11;;;;;;;5.07;0.60;;;7.90;56.90;;;;;;4899704;29;20036;-77
2023/02/26 10:24:45;;;;;;;2.45;0.68;;;8.10;56.30;;;;;;4909499;29;20075;-80
2023/02/26 10:27:14;;;;;;;;;;;7.90;56.60;;;;;;4905423;29;20024;-78
2023/02/26 10:30:09;;;;;;;10.00;1.85;;;7.80;56.10;;;;;;4899467;29;19912;-78
2023/02/26 10:32:37;;;;;;;3.43;0.80;;;7.80;57.00;;;;;;4885322;29;20127;-77
2023/02/26 10:35:16;;;;;;;2.13;0.70;;;7.70;56.50;;;;;;4899784;29;20029;-78
2023/02/26 10:38:08;;;;;;;2.20;0.45;;;7.50;55.50;;;;;;4910079;29;20051;-77
2023/02/26 10:40:38;;;;;;;1.27;0.50;;;7.70;56.40;;;;;;4901036;29;20044;-78
2023/02/26 10:43:25;;;;;;;8.35;1.10;;;7.80;56.60;;;;;;4904474;29;20977;-78
2023/02/26 10:46:25;;;;;;;6.55;0.90;;;7.60;55.30;;;;;;4902492;29;20040;-79
2023/02/26 10:49:04;;;;;;;23.60;2.40;;;7.70;56.90;;;;;;4903211;29;20060;-78
2023/02/26 10:51:38;;;;;;;3.17;0.60;;;7.70;56.00;;;;;;4902020;29;20470;-79
2023/02/26 10:54:15;;;;;;;2.67;0.98;;;7.80;55.50;;;;;;4897167;29;20119;-78
2023/02/26 10:56:40;;;;;;;2.78;1.20;;;7.90;55.70;;;;;;4902761;29;20040;-78
2023/02/26 10:59:06;;;;;;;4.32;1.50;;;8.30;56.60;;;;;;4896023;29;20040;-77
2023/02/26 11:01:32;;;;;;;3.42;0.80;;;8.40;57.20;;;;;;4904492;29;20028;-78
2023/02/26 11:04:22;;;;;;;5.47;1.02;;;8.20;55.90;;;;;;4904106;29;20051;-77
2023/02/26 11:06:49;;;;;;;3.40;1.13;;;8.40;55.90;;;;;;4899832;29;20036;-78
2023/02/26 11:09:22;;;;;;;1.67;0.80;;;8.10;55.40;;;;;;4901770;29;20044;-78
2023/02/26 11:11:53;;;;;;;2.07;1.23;;;8.30;55.40;;;;;;4900114;29;20075;-78
2023/02/26 11:14:20;;;;;;;1.85;0.88;;;8.20;55.10;;;;;;4899613;29;20035;-79
2023/02/26 11:16:51;;;;;;;5.55;1.20;;;8.30;55.70;;;;;;4906730;29;20032;-78
2023/02/26 11:19:23;;;;;;;1.77;0.70;;;8.10;54.60;;;;;;4902344;29;20483;-79
2023/02/26 11:21:50;;;;;;;1.90;0.80;;;7.90;54.80;;;;;;4900084;29;20046;-78
2023/02/26 11:24:23;;;;;;;1.98;0.73;;;8.10;55.80;;;;;;4898250;29;20032;-78
2023/02/26 11:26:50;;;;;;;9.75;1.45;;;7.80;54.60;;;;;;4892689;29;20390;-78
2023/02/26 11:29:21;;;;;;;1.65;0.47;;;8.10;55.90;;;;;;4894861;29;20039;-77
2023/02/26 11:31:51;;;;;;;4.00;0.75;;;8.00;54.90;;;;;;4892727;29;20028;-78
2023/02/26 11:34:22;;;;;;;5.25;0.90;;;8.10;56.40;;;;;;4892298;29;20032;-78
2023/02/26 11:36:49;;;;;;;1.85;0.88;;;8.10;55.90;;;;;;4899210;29;20112;-77
2023/02/26 11:39:19;;;;;;;1.40;0.47;;;8.20;55.80;;;;;;4904054;29;20111;-78
2023/02/26 11:41:47;;;;;;;1.35;0.70;;;7.80;54.70;;;;;;4902734;29;20028;-77
2023/02/26 11:44:26;;;;;;;2.78;1.33;;;8.10;55.70;;;;;;4901154;29;20043;-78
2023/02/26 11:46:56;;;;;;;8.57;1.67;;;8.10;55.30;;;;;;4903918;29;20043;-78
2023/02/26 11:49:25;;;;;;;2.95;1.20;;;8.30;55.90;;;;;;4888251;29;20053;-77
2023/02/26 11:52:15;;;;;;;5.65;2.05;;;8.50;56.00;;;;;;4890390;29;20048;-77
2023/02/26 11:54:44;;;;;;;2.72;1.08;;;8.60;55.90;;;;;;4895278;29;20375;-76
2023/02/26 11:57:30;;;;;;;7.07;0.82;;;8.50;56.10;;;;;;4901941;29;20115;-78
2023/02/26 11:59:59;;;;;;;1.95;0.60;;;8.20;55.20;;;;;;4905412;29;20084;-77
2023/02/26 12:02:31;;;;;;;2.72;0.95;;;8.20;55.30;;;;;;4907768;29;20046;-78
2023/02/26 12:04:59;;;;;;;3.20;0.73;;;8.20;55.40;;;;;;4899034;29;20099;-75
2023/02/26 12:07:26;;;;;;;2.80;0.70;;;8.30;55.90;;;;;;4901906;29;20131;-80
2023/02/26 12:09:51;;;;;;;2.10;0.63;;;8.40;56.00;;;;;;4906524;29;20032;-77
2023/02/26 12:12:32;;;;;;;1.50;0.57;;;8.00;54.50;;;;;;4902145;29;20043;-75
2023/02/26 12:15:15;;;;;;;3.63;0.63;;;7.90;54.70;;;;;;4901047;29;20322;-76
2023/02/26 12:18:10;;;;;;;1.10;0.50;;;7.90;55.20;;;;;;4900590;29;20064;-75
2023/02/26 12:20:42;;;;;;;2.08;0.75;;;7.70;55.40;;;;;;4899446;29;20039;-76
2023/02/26 12:23:16;;;;;;;1.98;0.80;;;7.60;54.40;;;;;;4898246;29;20088;-75
2023/02/26 12:25:42;;;;;;;4.95;0.68;;;7.60;54.40;;;;;;4899854;29;20047;-80
2023/02/26 12:28:25;;;;;;;2.08;0.60;;;7.40;54.40;;;;;;4904156;29;20028;-76
2023/02/26 12:31:28;;;;;;;1.75;0.43;;;7.40;54.60;;;;;;4895256;29;20579;-77
2023/02/26 12:34:23;;;;;;;3.90;0.50;;;7.40;54.20;;;;;;4888585;29;20072;-74
2023/02/26 12:37:13;;;;;;;5.82;0.50;;;7.30;54.90;;;;;;4897984;29;20040;-76
2023/02/26 12:39:44;;;;;;;1.83;0.43;;;7.40;55.50;;;;;;4897905;29;20043;-77
2023/02/26 12:42:37;;;;;;;7.97;0.50;;;7.30;54.80;;;;;;4896241;29;20107;-78
2023/02/26 12:45:26;;;;;;;10.85;1.10;;;7.20;54.10;;;;;;4891222;29;20037;-76
2023/02/26 12:48:05;;;;;;;27.38;1.92;;;7.30;54.90;;;;;;4903036;29;20039;-75
2023/02/26 12:51:01;;;;;;;3.75;0.28;;;7.10;54.20;;;;;;4900012;29;20115;-75
2023/02/26 12:53:35;;;;;;;1.23;0.38;;;7.20;54.70;;;;;;4897445;29;20032;-75
2023/02/26 12:56:23;;;;;;;2.83;0.73;;;7.10;54.30;;;;;;4898185;29;20040;-74
2023/02/26 12:59:09;;;;;;;1.05;0.30;;;7.10;54.50;;;;;;4895641;29;20033;-76
2023/02/26 13:02:04;;;;;;;1.45;0.30;;;7.10;54.60;;;;;;4899873;29;20063;-75
2023/02/26 13:04:41;;;;;;;1.05;0.50;;;7.10;55.30;;;;;;4894261;29;20040;-76
2023/02/26 13:07:10;;;;;;;3.10;0.28;;;7.20;55.90;;;;;;4890926;29;20036;-75
2023/02/26 13:10:00;;;;;;;14.02;0.93;;;7.20;55.50;;;;;;4892352;29;20040;-76
2023/02/26 13:12:44;;;;;;;2.13;0.40;;;7.20;55.50;;;;;;4893722;29;20506;-76
2023/02/26 13:15:28;;;;;;;0.73;0.20;;;7.20;55.20;;;;;;4896138;29;20039;-75
2023/02/26 13:17:54;;;;;;;0.85;0.30;;;7.10;55.10;;;;;;4889325;29;20037;-76
2023/02/26 13:20:24;;;;;;;1.10;0.50;;;7.20;55.40;;;;;;4893812;29;20043;-76